HADR

Aba Tenna Dejazmach Yilma International Airport

Dire Dawa, Ethiopia
METAR HADR 260500Z 16013KT 9999 FEW028 28/20 Q1017
Observed Flight Rules
Apr-26 @ 05:00 UTC (an hour ago) Visual Flight Rules
Wind Visibility Clouds
160° at 13 knots 10,000+ meters
  • Few at 2,800' AGL
Temperatures Readings
Current 28°C / 82°F
Dewpoint 20°C / 68°F
Humidity 62%
Altimeter 30.03" Hg
Pressure 1017 hPa
Elevation 1146
METAR HADR 260500Z 16013KT 9999 FEW028 28/20 Q1017
Observed Flight Rules
Apr-26 @ 05:00 UTC
(an hour ago)
VFR
Wind Visibility
160° at 13 knots 10,000+ meters
Clouds
  • Few at 2,800' AGL
Temperature Dewpoint
28°C / 82°F 20°C / 68°F
Humidity Altimeter Pressure
62% 30.03" Hg 1017 hPa